Time;durP1;ratioP1;P1;durP2;ratioP2;P2;SDS_P1;SDS_P2;PMS_P1;PMS_P2;Temp;Humidity;BMP_temperature;BMP_pressure;BME280_temperature;BME280_humidity;BME280_pressure;Samples;Min_cycle;Max_cycle;Signal;HPM_P1;HPM_P2
2021/05/06 00:31:00;;;;;;;4.57;1.55;;;;;;;16.39;54.58;96847.94;4888449;29;20067;-77
2021/05/06 00:33:21;;;;;;;3.17;1.85;;;;;;;16.33;54.37;96841.28;4881209;29;20024;-76
2021/05/06 00:35:48;;;;;;;4.32;1.58;;;;;;;16.40;54.59;96855.88;4878772;29;20043;-76
2021/05/06 00:38:17;;;;;;;4.35;2.20;;;;;;;16.32;55.17;96855.78;4877082;29;20033;-76
2021/05/06 00:59:28;;;;;;;10.48;1.90;;;;;;;15.96;58.17;96878.16;4875087;29;20036;-76
2021/05/06 01:04:39;;;;;;;2.85;1.80;;;;;;;15.70;59.25;96867.97;4882982;29;20032;-76
2021/05/06 01:09:44;;;;;;;3.47;1.80;;;;;;;15.39;61.53;96873.59;4870196;29;20044;-77
2021/05/06 01:12:10;;;;;;;4.70;1.75;;;;;;;15.48;59.13;96873.66;4849797;29;20033;-77
2021/05/06 01:14:36;;;;;;;2.92;1.60;;;;;;;15.40;61.62;96878.88;4872836;29;20060;-76
2021/05/06 01:17:02;;;;;;;4.00;1.90;;;;;;;15.35;60.85;96881.13;4871602;29;20037;-77
2021/05/06 01:19:27;;;;;;;3.53;1.63;;;;;;;15.39;60.97;96884.38;4866823;29;20032;-77
2021/05/06 01:21:57;;;;;;;2.70;1.60;;;;;;;15.29;60.77;96888.94;4866922;29;20408;-76
2021/05/06 01:24:23;;;;;;;2.40;1.55;;;;;;;15.31;61.61;96897.72;4848518;29;20048;-76
2021/05/06 01:29:33;;;;;;;2.75;1.60;;;;;;;15.28;60.13;96892.63;4865411;29;20097;-76
2021/05/06 01:34:37;;;;;;;9.18;1.80;;;;;;;15.33;62.41;96895.72;4883676;29;20036;-76
2021/05/06 01:37:13;;;;;;;4.97;1.65;;;;;;;15.29;63.22;96899.72;4874684;29;20029;-76
2021/05/06 01:42:43;;;;;;;2.75;1.50;;;;;;;15.11;62.44;96896.81;4888145;29;20044;-76
2021/05/06 01:48:30;;;;;;;3.70;2.10;;;;;;;15.04;62.05;96893.00;4878169;29;20048;-76
2021/05/06 01:58:54;;;;;;;2.50;1.77;;;;;;;14.81;66.84;96915.75;4865478;29;20116;-75
2021/05/06 02:01:20;;;;;;;4.25;1.95;;;;;;;14.84;65.98;96926.25;4867015;29;20089;-76
2021/05/06 02:03:45;;;;;;;4.70;1.50;;;;;;;14.81;66.10;96926.50;4873782;29;20497;-75
2021/05/06 02:06:11;;;;;;;2.88;1.90;;;;;;;14.85;67.99;96923.44;4850290;29;20147;-75
2021/05/06 02:08:37;;;;;;;4.68;2.25;;;;;;;14.81;65.33;96926.50;4858159;29;20111;-75
2021/05/06 02:11:03;;;;;;;3.55;2.00;;;;;;;14.88;64.48;96927.69;4858932;29;20060;-75
2021/05/06 02:13:29;;;;;;;5.78;2.22;;;;;;;14.90;67.06;96923.00;4879158;29;20112;-75
2021/05/06 02:16:04;;;;;;;4.30;2.10;;;;;;;14.96;67.40;96930.53;4854764;29;20032;-75
2021/05/06 02:18:33;;;;;;;4.40;1.92;;;;;;;14.89;67.33;96924.84;4858392;29;20060;-77
2021/05/06 02:20:58;;;;;;;4.47;2.13;;;;;;;14.88;69.03;96931.22;4866822;29;20143;-75
2021/05/06 02:23:24;;;;;;;6.07;2.20;;;;;;;14.72;67.82;96932.72;4846862;29;20166;-75
2021/05/06 02:25:49;;;;;;;4.38;2.22;;;;;;;14.65;69.55;96941.34;4851948;29;20036;-75
2021/05/06 02:28:15;;;;;;;4.78;2.15;;;;;;;14.59;70.89;96949.09;4850053;29;20033;-75
2021/05/06 02:30:41;;;;;;;4.47;2.28;;;;;;;14.60;70.78;96945.41;4853998;29;20029;-76
2021/05/06 02:33:09;;;;;;;4.78;2.28;;;;;;;14.63;70.25;96954.09;4862576;29;20033;-75
2021/05/06 02:35:37;;;;;;;6.03;2.25;;;;;;;14.63;70.09;96956.78;4846994;29;20406;-75
2021/05/06 02:38:03;;;;;;;5.15;2.10;;;;;;;14.59;70.77;96960.72;4854674;29;20548;-76
2021/05/06 02:40:29;;;;;;;8.55;2.55;;;;;;;14.54;71.59;96957.56;4856233;29;20032;-76
2021/05/06 02:42:54;;;;;;;4.45;2.33;;;;;;;14.55;71.27;96959.25;4867798;29;20036;-75
2021/05/06 02:45:20;;;;;;;7.47;2.45;;;;;;;14.43;71.61;96971.09;4847176;29;20042;-75
2021/05/06 02:47:46;;;;;;;16.58;2.40;;;;;;;14.47;69.93;96969.84;4880651;29;20084;-75
2021/05/06 02:50:14;;;;;;;5.65;2.25;;;;;;;14.49;70.69;96970.56;4889576;29;20044;-75
2021/05/06 02:52:50;;;;;;;8.48;2.50;;;;;;;14.35;71.51;96970.91;4869791;29;20033;-76
2021/05/06 02:55:26;;;;;;;8.90;2.42;;;;;;;14.41;71.38;96972.22;4847584;29;20068;-75
2021/05/06 02:57:56;;;;;;;4.70;2.22;;;;;;;14.33;72.14;96985.50;4869447;29;20037;-75
2021/05/06 03:03:06;;;;;;;14.32;2.80;;;;;;;14.16;72.30;96989.59;4869087;29;20052;-75
2021/05/06 03:05:34;;;;;;;6.38;3.00;;;;;;;14.09;72.88;96985.69;4892682;29;20496;-75
2021/05/06 03:23:43;;;;;;;21.60;5.15;;;;;;;13.67;75.63;97018.88;4874794;29;20043;-75
2021/05/06 03:26:09;;;;;;;13.40;3.65;;;;;;;13.67;75.71;97035.88;4864646;29;20028;-75
2021/05/06 03:28:39;;;;;;;7.55;2.83;;;;;;;13.77;75.10;97026.06;4849073;29;20033;-76
2021/05/06 03:41:53;;;;;;;14.30;3.47;;;;;;;14.15;74.67;97044.34;4874503;29;20123;-75
2021/05/06 04:16:30;;;;;;;18.52;6.68;;;;;;;14.82;74.25;97119.41;4831426;29;20037;-75
2021/05/06 04:21:31;;;;;;;20.45;8.77;;;;;;;14.91;72.01;97121.31;4858849;29;20435;-76
2021/05/06 04:22:12;;;;;;;21.27;8.10;;;;;;;16.11;67.48;97124.94;4876849;29;20032;-75
2021/05/06 04:27:33;;;;;;;20.98;8.20;;;;;;;17.17;62.03;97129.34;4869957;29;20060;-76
2021/05/06 04:30:15;;;;;;;14.52;7.72;;;;;;;16.65;63.17;97119.91;4860533;29;20032;-74
2021/05/06 04:35:44;;;;;;;26.10;12.18;;;;;;;15.86;66.76;97133.56;4873858;29;20040;-77
2021/05/06 04:38:12;;;;;;;25.70;12.02;;;;;;;15.58;67.26;97129.75;4879535;29;20497;-75
2021/05/06 04:54:22;;;;;;;17.25;6.95;;;;;;;15.45;68.53;97143.44;4878633;29;20051;-76
2021/05/06 05:05:01;;;;;;;44.30;24.02;;;;;;;15.91;69.06;97169.91;4887475;29;20113;-76
2021/05/06 05:07:41;;;;;;;33.65;20.08;;;;;;;16.00;69.24;97181.72;4870069;29;20490;-77
2021/05/06 05:18:17;;;;;;;69.88;41.58;;;;;;;17.82;60.69;97201.50;4884562;29;20047;-76
2021/05/06 05:20:50;;;;;;;32.22;20.42;;;;;;;19.66;55.03;97200.03;4872322;29;20413;-76
2021/05/06 05:24:21;;;;;;;44.22;20.02;;;;;;;22.27;47.23;97215.66;4897535;29;20112;-77
2021/05/06 05:26:12;;;;;;;51.42;29.83;;;;;;;24.85;40.34;97228.25;4863947;29;20520;-77
2021/05/06 05:28:38;;;;;;;18.38;10.65;;;;;;;26.07;37.42;97231.59;4872524;29;20017;-78
2021/05/06 05:31:04;;;;;;;7.32;5.15;;;;;;;26.30;36.23;97239.59;4873151;29;20029;-76
2021/05/06 05:33:34;;;;;;;11.68;4.93;;;;;;;27.39;35.03;97253.22;4876275;29;20421;-77
2021/05/06 05:43:50;;;;;;;6.63;2.85;;;;;;;30.29;27.48;97251.38;4881671;29;20036;-78
2021/05/06 05:54:37;;;;;;;8.05;2.38;;;;;;;30.88;26.28;97264.59;4870176;29;20565;-77
2021/05/06 05:57:08;;;;;;;4.95;2.10;;;;;;;31.89;24.79;97258.41;4862850;29;20029;-78
2021/05/06 05:59:34;;;;;;;6.47;2.40;;;;;;;31.70;24.87;97260.41;4848671;29;20127;-84
2021/05/06 06:02:02;;;;;;;2.70;2.40;;;;;;;31.42;24.99;97262.88;4849539;29;20513;-84
2021/05/06 06:04:31;;;;;;;8.70;2.50;;;;;;;30.95;25.23;97262.63;4852318;29;20420;-84
2021/05/06 06:06:57;;;;;;;12.82;2.60;;;;;;;31.55;24.63;97273.81;4862279;29;20458;-84
2021/05/06 06:09:23;;;;;;;4.50;2.10;;;;;;;32.03;24.15;97276.50;4858283;29;20035;-82
2021/05/06 06:11:49;;;;;;;3.75;2.25;;;;;;;32.15;24.49;97274.63;4832533;29;20029;-84
2021/05/06 06:14:19;;;;;;;9.65;3.38;;;;;;;31.87;24.88;97266.94;4857917;29;20569;-85
2021/05/06 06:16:44;;;;;;;10.07;4.32;;;;;;;31.19;25.56;97273.84;4878488;29;20123;-85
2021/05/06 06:19:10;;;;;;;8.73;3.55;;;;;;;31.55;25.17;97288.50;4853270;29;20478;-85
2021/05/06 06:21:51;;;;;;;10.77;4.45;;;;;;;30.85;25.57;97289.09;4879297;29;20490;-85
2021/05/06 06:24:18;;;;;;;10.07;3.23;;;;;;;30.59;25.07;97287.44;4877913;29;20412;-86
2021/05/06 06:26:44;;;;;;;7.38;2.33;;;;;;;31.14;24.90;97294.72;4850040;29;20033;-77
2021/05/06 06:29:12;;;;;;;14.93;3.40;;;;;;;31.49;25.82;97307.94;4879407;29;20047;-76
2021/05/06 06:31:41;;;;;;;24.90;12.30;;;;;;;31.99;24.27;97294.66;4876348;29;20036;-76
2021/05/06 06:34:07;;;;;;;6.57;2.85;;;;;;;32.61;24.51;97293.25;4868755;29;20481;-79
2021/05/06 06:36:34;;;;;;;25.70;12.80;;;;;;;32.87;23.62;97289.16;4871645;29;20116;-78
2021/05/06 06:39:00;;;;;;;12.57;2.67;;;;;;;31.87;24.18;97304.88;4846754;29;20089;-77
2021/05/06 06:41:25;;;;;;;12.20;5.05;;;;;;;32.69;23.32;97296.53;4846448;29;20036;-77
2021/05/06 06:43:53;;;;;;;6.53;2.63;;;;;;;31.83;23.81;97289.78;4873874;29;20041;-86
2021/05/06 06:46:19;;;;;;;7.70;2.22;;;;;;;32.78;23.14;97291.44;4887110;29;20464;-75
2021/05/06 06:48:45;;;;;;;7.80;2.55;;;;;;;31.75;24.29;97303.97;4868511;29;20116;-75
2021/05/06 06:51:11;;;;;;;6.72;3.70;;;;;;;31.20;25.07;97287.41;4868525;29;20113;-75
2021/05/06 06:53:36;;;;;;;42.08;3.60;;;;;;;31.42;24.44;97302.44;4892995;29;20120;-75
2021/05/06 06:56:03;;;;;;;3.83;2.05;;;;;;;31.78;24.26;97284.94;4869455;29;20407;-74
2021/05/06 06:58:29;;;;;;;7.50;2.28;;;;;;;33.22;22.23;97262.25;4861514;29;20128;-75
2021/05/06 07:00:55;;;;;;;12.00;3.30;;;;;;;32.18;23.13;97272.22;4846303;29;20140;-75
2021/05/06 07:03:21;;;;;;;12.10;2.35;;;;;;;31.53;23.72;97276.78;4879080;29;20036;-75
2021/05/06 07:05:47;;;;;;;9.35;2.53;;;;;;;32.12;23.74;97275.09;4876665;29;20057;-75
2021/05/06 07:08:18;;;;;;;6.32;1.90;;;;;;;32.86;23.30;97281.91;4893406;29;20493;-74
2021/05/06 07:10:46;;;;;;;7.15;2.08;;;;;;;33.26;21.54;97267.06;4883405;29;20385;-74
2021/05/06 07:13:12;;;;;;;12.13;2.97;;;;;;;33.60;20.61;97256.94;4864475;29;20128;-74
2021/05/06 07:15:38;;;;;;;3.45;2.30;;;;;;;32.82;22.09;97261.34;4872648;29;20416;-74
2021/05/06 07:18:07;;;;;;;14.95;2.35;;;;;;;33.67;21.61;97260.44;4880035;29;20037;-73
2021/05/06 07:20:33;;;;;;;5.95;1.83;;;;;;;34.26;20.85;97261.81;4850098;29;20029;-74
2021/05/06 07:22:58;;;;;;;8.32;2.17;;;;;;;34.89;19.60;97254.22;4880095;29;20039;-75
2021/05/06 07:25:24;;;;;;;8.32;1.90;;;;;;;33.24;21.52;97260.06;4879031;29;20462;-74
2021/05/06 07:27:49;;;;;;;7.13;2.38;;;;;;;34.61;20.19;97261.56;4869142;29;20029;-74
2021/05/06 07:30:15;;;;;;;36.38;22.10;;;;;;;34.88;20.80;97269.22;4877666;29;20067;-74
2021/05/06 07:32:42;;;;;;;14.13;2.50;;;;;;;33.17;21.85;97262.97;4860200;29;20045;-73
2021/05/06 07:35:08;;;;;;;5.68;2.20;;;;;;;34.01;22.53;97274.38;4853956;29;20401;-73
2021/05/06 07:37:33;;;;;;;6.07;1.83;;;;;;;33.77;22.06;97277.28;4861338;29;20486;-76
2021/05/06 07:39:59;;;;;;;6.03;2.17;;;;;;;34.18;22.32;97278.03;4868902;29;20037;-74
2021/05/06 07:42:24;;;;;;;5.88;2.63;;;;;;;32.28;23.60;97277.16;4863150;29;20037;-75
2021/05/06 07:44:50;;;;;;;11.80;3.97;;;;;;;33.03;22.78;97289.28;4864596;29;20043;-73
2021/05/06 07:47:15;;;;;;;13.63;2.75;;;;;;;32.84;23.30;97290.47;4872021;29;20037;-75
2021/05/06 07:49:41;;;;;;;8.77;2.67;;;;;;;33.59;22.31;97282.16;4879847;29;20029;-75
2021/05/06 07:52:08;;;;;;;20.83;5.05;;;;;;;33.61;22.30;97297.50;4857113;29;20025;-75
2021/05/06 07:54:35;;;;;;;14.07;2.10;;;;;;;34.13;22.72;97291.84;4868819;29;20029;-75
2021/05/06 07:57:00;;;;;;;16.45;2.30;;;;;;;35.69;20.95;97282.28;4866987;29;20039;-75
2021/05/06 07:59:26;;;;;;;6.28;2.33;;;;;;;35.31;20.92;97286.00;4879608;29;20028;-75
2021/05/06 08:01:52;;;;;;;13.13;2.20;;;;;;;35.63;19.83;97280.56;4896307;29;20433;-75
2021/05/06 08:04:21;;;;;;;5.43;2.63;;;;;;;35.07;21.10;97273.38;4880391;29;20111;-75
2021/05/06 08:06:48;;;;;;;14.35;4.60;;;;;;;34.94;20.90;97293.22;4853637;29;20053;-75
2021/05/06 08:09:14;;;;;;;5.75;2.30;;;;;;;35.53;21.16;97286.84;4860936;29;20036;-75
2021/05/06 08:11:40;;;;;;;7.70;2.08;;;;;;;35.90;19.97;97273.91;4871800;29;20064;-75
2021/05/06 08:14:06;;;;;;;6.47;2.47;;;;;;;35.25;19.91;97279.53;4881840;29;20053;-75
2021/05/06 08:16:31;;;;;;;5.88;3.08;;;;;;;34.23;21.15;97278.16;4862926;29;20029;-75
2021/05/06 08:18:57;;;;;;;6.43;1.90;;;;;;;35.41;20.37;97276.94;4893485;29;20040;-73
2021/05/06 08:21:24;;;;;;;10.52;2.67;;;;;;;35.74;20.57;97291.56;4864635;29;20033;-76
2021/05/06 08:23:50;;;;;;;13.15;2.30;;;;;;;34.89;20.54;97276.47;4865115;29;20077;-74
2021/05/06 08:26:15;;;;;;;7.13;2.30;;;;;;;34.11;20.27;97264.34;4864556;29;20032;-73
2021/05/06 08:28:41;;;;;;;4.13;2.13;;;;;;;35.56;20.43;97291.88;4859512;29;20043;-74
2021/05/06 08:31:07;;;;;;;10.43;1.92;;;;;;;35.87;20.23;97284.75;4869229;29;20025;-74
2021/05/06 08:33:32;;;;;;;4.22;2.05;;;;;;;35.98;19.58;97291.25;4866283;29;20412;-73
2021/05/06 08:35:58;;;;;;;7.38;2.15;;;;;;;35.83;19.30;97283.59;4874889;29;20029;-73
2021/05/06 08:38:24;;;;;;;3.15;2.40;;;;;;;35.19;20.10;97272.19;4859617;29;20040;-74
2021/05/06 08:40:52;;;;;;;8.30;3.30;;;;;;;36.20;20.35;97306.00;4899885;29;20040;-74
2021/05/06 08:43:19;;;;;;;8.40;2.10;;;;;;;35.65;20.18;97290.34;4859480;29;20029;-74
2021/05/06 08:45:49;;;;;;;7.22;2.67;;;;;;;35.87;20.08;97293.09;4844488;29;20059;-74
2021/05/06 08:48:16;;;;;;;10.75;2.10;;;;;;;33.25;22.49;97289.50;4853149;29;20029;-74
2021/05/06 08:50:42;;;;;;;7.80;2.83;;;;;;;33.28;22.98;97297.34;4859049;29;20037;-74
2021/05/06 08:53:09;;;;;;;10.93;3.08;;;;;;;34.09;22.61;97296.19;4874668;29;20051;-75
2021/05/06 08:55:35;;;;;;;6.35;2.20;;;;;;;35.29;21.60;97300.16;4850066;29;20033;-74
2021/05/06 08:58:00;;;;;;;7.15;3.00;;;;;;;35.94;20.39;97296.50;4848790;29;20037;-75
2021/05/06 09:00:26;;;;;;;12.13;3.42;;;;;;;36.43;19.75;97287.00;4888096;29;20047;-75
2021/05/06 09:02:52;;;;;;;8.43;2.08;;;;;;;36.41;19.25;97291.16;4871575;29;20104;-74
2021/05/06 09:05:18;;;;;;;12.43;2.30;;;;;;;35.82;20.46;97296.66;4887588;29;20485;-74
2021/05/06 09:07:44;;;;;;;13.82;2.95;;;;;;;36.42;19.92;97292.84;4879779;29;20044;-75
2021/05/06 09:10:31;;;;;;;6.95;2.50;;;;;;;36.30;19.52;97295.78;4871383;29;20033;-75
2021/05/06 09:12:57;;;;;;;7.25;3.22;;;;;;;34.94;20.82;97290.44;4875321;29;20079;-75
2021/05/06 09:15:23;;;;;;;9.75;2.65;;;;;;;35.66;20.54;97294.81;4866550;29;20080;-75
2021/05/06 09:17:49;;;;;;;5.57;2.00;;;;;;;36.97;19.23;97289.66;4866585;29;20055;-75
2021/05/06 09:20:19;;;;;;;7.05;2.45;;;;;;;36.19;19.80;97279.25;4875813;29;20165;-74
2021/05/06 09:22:46;;;;;;;3.05;1.92;;;;;;;32.35;22.42;97283.44;4863892;29;20477;-74
2021/05/06 09:25:26;;;;;;;12.93;3.15;;;;;;;32.33;23.52;97293.09;4887896;29;20478;-74
2021/05/06 09:28:15;;;;;;;11.73;2.63;;;;;;;33.23;22.38;97299.97;4883656;29;20485;-74
2021/05/06 09:30:55;;;;;;;10.77;2.50;;;;;;;31.31;23.89;97296.88;4880131;29;20470;-74
2021/05/06 09:33:30;;;;;;;9.10;2.65;;;;;;;32.17;24.34;97298.25;4847839;29;20097;-74
2021/05/06 09:35:56;;;;;;;4.75;2.67;;;;;;;33.73;23.99;97306.63;4870730;29;20120;-74
2021/05/06 09:38:30;;;;;;;7.05;2.25;;;;;;;34.29;20.87;97282.69;4854711;29;20037;-74
2021/05/06 09:40:59;;;;;;;5.05;2.45;;;;;;;35.63;20.20;97292.53;4851457;29;20033;-75
2021/05/06 09:43:35;;;;;;;9.57;4.45;;;;;;;37.49;18.90;97297.25;4881921;29;20029;-75
2021/05/06 09:46:02;;;;;;;5.25;2.75;;;;;;;35.90;19.50;97289.81;4870168;29;20181;-74
2021/05/06 09:48:28;;;;;;;6.80;2.22;;;;;;;35.75;20.29;97301.59;4855216;29;20130;-75
2021/05/06 09:51:03;;;;;;;10.48;2.17;;;;;;;36.68;19.36;97293.91;4870545;29;20032;-75
2021/05/06 09:53:32;;;;;;;5.95;2.50;;;;;;;37.01;19.89;97307.56;4878374;29;20156;-75
2021/05/06 09:55:59;;;;;;;6.03;2.60;;;;;;;36.86;20.29;97297.13;4866600;29;20028;-75
2021/05/06 09:58:28;;;;;;;2.10;1.80;;;;;;;36.17;18.68;97281.47;4881429;29;20036;-75
2021/05/06 10:00:55;;;;;;;5.75;2.88;;;;;;;36.21;18.97;97282.63;4878602;29;20033;-74
2021/05/06 10:03:23;;;;;;;15.77;2.58;;;;;;;37.95;18.48;97296.34;4876879;29;20430;-75
2021/05/06 10:05:50;;;;;;;5.10;2.28;;;;;;;38.32;17.70;97273.75;4863619;29;20028;-75
2021/05/06 10:08:17;;;;;;;4.57;2.20;;;;;;;37.85;18.50;97268.34;4868316;29;20349;-73
2021/05/06 10:10:43;;;;;;;5.25;1.90;;;;;;;37.19;18.28;97259.69;4850277;29;20048;-73
2021/05/06 10:13:10;;;;;;;4.82;2.10;;;;;;;37.05;17.88;97255.69;4873553;29;20028;-75
2021/05/06 10:15:40;;;;;;;6.38;2.30;;;;;;;36.14;19.63;97252.19;4865579;29;20148;-72
2021/05/06 10:18:07;;;;;;;5.20;2.38;;;;;;;36.94;19.71;97257.56;4881153;29;20127;-76
2021/05/06 10:20:34;;;;;;;12.75;3.17;;;;;;;38.03;18.66;97253.88;4889782;29;20033;-73
2021/05/06 10:23:00;;;;;;;10.30;7.22;;;;;;;37.40;19.63;97266.22;4872865;29;20493;-73
2021/05/06 10:25:26;;;;;;;30.00;3.47;;;;;;;36.40;20.44;97264.38;4880640;29;20028;-74
2021/05/06 10:27:53;;;;;;;3.55;2.55;;;;;;;37.20;18.68;97266.94;4871011;29;20104;-76
2021/05/06 10:30:19;;;;;;;35.05;4.63;;;;;;;36.99;18.91;97269.88;4852320;29;20112;-75
2021/05/06 10:32:46;;;;;;;16.10;2.50;;;;;;;37.49;19.29;97270.19;4889775;29;20025;-76
2021/05/06 10:35:13;;;;;;;29.80;3.40;;;;;;;38.47;19.06;97271.84;4876399;29;20104;-75
2021/05/06 10:37:42;;;;;;;9.63;2.17;;;;;;;39.48;16.93;97270.88;4868593;29;20035;-75
2021/05/06 10:40:20;;;;;;;24.17;3.75;;;;;;;37.82;17.92;97264.16;4868863;29;20097;-72
2021/05/06 10:42:46;;;;;;;13.10;3.78;;;;;;;38.49;17.37;97275.19;4862904;29;20508;-73
2021/05/06 10:45:12;;;;;;;9.45;6.47;;;;;;;39.38;16.38;97266.13;4860756;29;20033;-74
2021/05/06 10:47:47;;;;;;;7.30;2.05;;;;;;;39.65;15.87;97260.16;4876948;29;20559;-74
2021/05/06 10:50:25;;;;;;;11.13;2.30;;;;;;;39.13;17.02;97268.16;4879819;29;20485;-73
2021/05/06 10:52:53;;;;;;;17.65;4.68;;;;;;;38.49;16.86;97258.41;4870637;29;20393;-73
2021/05/06 10:55:40;;;;;;;3.78;1.73;;;;;;;37.11;18.70;97262.97;4859960;29;20029;-74
2021/05/06 10:58:30;;;;;;;3.45;1.85;;;;;;;39.42;16.50;97264.44;4881889;29;20028;-73
2021/05/06 11:01:01;;;;;;;7.22;2.20;;;;;;;40.55;16.60;97269.16;4878243;29;20041;-76
2021/05/06 11:03:27;;;;;;;6.32;1.83;;;;;;;41.01;16.39;97263.97;4867438;29;20093;-74
2021/05/06 11:05:53;;;;;;;3.00;1.70;;;;;;;40.46;14.87;97249.28;4880065;29;20036;-74
2021/05/06 11:08:18;;;;;;;4.50;1.75;;;;;;;40.38;15.82;97251.88;4880348;29;20020;-74
2021/05/06 11:10:45;;;;;;;3.85;1.75;;;;;;;40.24;15.72;97259.31;4888774;29;20029;-74
2021/05/06 11:13:11;;;;;;;10.80;4.07;;;;;;;38.61;17.06;97241.34;4878235;29;20029;-73
2021/05/06 11:15:37;;;;;;;12.27;2.92;;;;;;;39.33;17.01;97266.16;4861138;29;20110;-74
2021/05/06 11:18:05;;;;;;;13.88;3.65;;;;;;;38.20;18.09;97253.63;4853423;29;20423;-74
2021/05/06 11:20:31;;;;;;;9.40;2.75;;;;;;;37.82;17.97;97269.72;4852051;29;20041;-74
2021/05/06 11:23:01;;;;;;;6.15;2.05;;;;;;;36.99;18.04;97264.31;4887479;29;20044;-74
2021/05/06 11:28:10;;;;;;;4.30;1.80;;;;;;;37.68;18.69;97263.00;4887924;29;20081;-77
2021/05/06 11:30:48;;;;;;;8.77;2.10;;;;;;;38.53;18.00;97267.09;4885715;29;20036;-77
2021/05/06 11:33:19;;;;;;;12.90;2.25;;;;;;;39.00;17.45;97276.03;4857322;29;20025;-77
2021/05/06 11:35:56;;;;;;;5.40;1.80;;;;;;;39.56;18.02;97276.69;4889093;29;20088;-77
2021/05/06 11:38:43;;;;;;;3.05;2.00;;;;;;;39.76;16.88;97272.16;4880308;29;20127;-77
2021/05/06 11:41:29;;;;;;;3.55;1.80;;;;;;;39.79;17.05;97254.78;4889945;29;20024;-76
2021/05/06 11:43:56;;;;;;;3.75;2.00;;;;;;;40.39;17.38;97264.78;4871654;29;20417;-78
2021/05/06 11:46:31;;;;;;;6.03;2.30;;;;;;;39.18;17.16;97245.75;4847227;29;20043;-77
2021/05/06 11:48:58;;;;;;;6.63;1.95;;;;;;;37.76;17.70;97236.47;4887283;29;20409;-77
2021/05/06 11:51:34;;;;;;;7.55;1.88;;;;;;;37.88;17.08;97246.28;4870689;29;20520;-77
2021/05/06 11:54:09;;;;;;;5.03;2.92;;;;;;;36.68;17.38;97229.78;4843136;29;20045;-77
2021/05/06 11:56:36;;;;;;;9.48;7.13;;;;;;;35.94;18.60;97234.38;4875012;29;20418;-77
2021/05/06 11:59:04;;;;;;;3.42;2.47;;;;;;;36.27;18.13;97239.75;4870804;29;20108;-82
2021/05/06 12:01:30;;;;;;;3.95;1.80;;;;;;;36.46;18.99;97242.94;4857969;29;20029;-81
2021/05/06 12:03:56;;;;;;;5.80;2.30;;;;;;;35.64;18.80;97246.06;4850373;29;20061;-77
2021/05/06 12:06:32;;;;;;;17.20;2.95;;;;;;;35.24;19.76;97246.38;4853927;29;20021;-76
2021/05/06 12:08:58;;;;;;;15.52;2.17;;;;;;;35.39;19.36;97257.69;4885442;29;20037;-78
2021/05/06 12:11:39;;;;;;;7.07;2.33;;;;;;;34.47;20.69;97243.53;4872274;29;20028;-78
2021/05/06 12:14:08;;;;;;;4.05;2.42;;;;;;;35.41;21.23;97252.69;4849695;29;20053;-77
2021/05/06 12:16:35;;;;;;;9.45;2.70;;;;;;;35.46;21.88;97261.13;4868502;29;20092;-77
2021/05/06 12:19:27;;;;;;;5.03;2.30;;;;;;;36.34;21.30;97265.44;4869563;29;20029;-77
2021/05/06 12:21:56;;;;;;;6.45;2.47;;;;;;;34.93;22.25;97256.22;4846748;29;20040;-76
2021/05/06 12:24:38;;;;;;;2.03;1.80;;;;;;;34.57;22.08;97242.88;4874067;29;20071;-77
2021/05/06 12:27:24;;;;;;;11.05;3.05;;;;;;;34.47;21.82;97243.53;4874437;29;20386;-77
2021/05/06 12:30:11;;;;;;;9.00;3.83;;;;;;;33.89;22.55;97234.75;4852171;29;20115;-78
2021/05/06 12:32:43;;;;;;;5.40;1.98;;;;;;;35.20;21.55;97242.41;4851194;29;20598;-78
2021/05/06 12:35:09;;;;;;;3.15;1.80;;;;;;;36.69;19.59;97232.31;4850012;29;20037;-76
2021/05/06 12:37:37;;;;;;;6.65;2.50;;;;;;;36.13;19.25;97219.84;4865898;29;20025;-78
2021/05/06 12:40:05;;;;;;;3.42;3.13;;;;;;;35.35;19.87;97223.97;4851718;29;20120;-78
2021/05/06 12:42:35;;;;;;;6.03;2.13;;;;;;;35.58;20.13;97239.59;4854497;29;20029;-77
2021/05/06 12:45:03;;;;;;;8.77;2.20;;;;;;;35.82;20.22;97215.91;4846758;29;20033;-78
2021/05/06 12:47:34;;;;;;;12.55;2.33;;;;;;;35.82;21.02;97227.03;4851935;29;20033;-78
2021/05/06 12:50:26;;;;;;;3.60;2.05;;;;;;;35.74;20.99;97235.03;4866944;29;20040;-76
2021/05/06 12:53:05;;;;;;;4.50;2.47;;;;;;;35.64;20.25;97221.84;4867123;29;20609;-76
2021/05/06 12:55:32;;;;;;;4.32;1.73;;;;;;;34.56;21.55;97232.84;4884720;29;20107;-76
2021/05/06 12:58:07;;;;;;;5.35;2.22;;;;;;;33.52;22.06;97226.81;4875790;29;20033;-76
2021/05/06 13:00:34;;;;;;;7.05;2.38;;;;;;;34.08;21.92;97241.75;4868001;29;20029;-77
2021/05/06 13:03:03;;;;;;;19.83;2.97;;;;;;;34.89;20.84;97231.97;4857352;29;20036;-77
2021/05/06 13:05:36;;;;;;;7.47;2.05;;;;;;;35.79;20.15;97224.78;4856336;29;20056;-77
2021/05/06 13:08:03;;;;;;;7.32;2.05;;;;;;;35.15;20.29;97222.88;4857450;29;20040;-77
2021/05/06 13:10:34;;;;;;;7.78;2.42;;;;;;;34.23;21.05;97220.66;4871627;29;20068;-76
2021/05/06 13:13:01;;;;;;;14.10;3.00;;;;;;;32.52;22.23;97223.47;4859274;29;20043;-76
2021/05/06 13:15:26;;;;;;;5.20;2.17;;;;;;;31.56;23.45;97217.41;4872443;29;20089;-76
2021/05/06 13:17:53;;;;;;;3.50;2.38;;;;;;;31.75;24.17;97234.81;4876490;29;20064;-76
2021/05/06 13:20:20;;;;;;;15.98;2.97;;;;;;;32.04;24.56;97245.00;4870355;29;20108;-76
2021/05/06 13:22:59;;;;;;;8.32;2.95;;;;;;;33.01;23.66;97247.06;4871421;29;20169;-76
2021/05/06 13:25:39;;;;;;;11.63;2.92;;;;;;;33.74;23.41;97247.25;4852192;29;20112;-76
2021/05/06 13:28:06;;;;;;;5.33;2.50;;;;;;;33.82;23.73;97236.81;4891573;29;20576;-76
2021/05/06 13:30:32;;;;;;;10.77;3.50;;;;;;;33.09;24.17;97243.97;4870174;29;20032;-76
2021/05/06 13:33:17;;;;;;;8.02;2.38;;;;;;;32.60;24.24;97236.16;4878355;29;20045;-77
2021/05/06 13:35:42;;;;;;;6.30;2.67;;;;;;;32.08;24.38;97241.53;4869709;29;20100;-76
2021/05/06 13:38:08;;;;;;;6.40;2.10;;;;;;;31.14;25.38;97238.59;4877383;29;20041;-83
2021/05/06 13:40:33;;;;;;;8.77;3.13;;;;;;;30.08;27.22;97251.78;4859689;29;20072;-86
2021/05/06 13:42:59;;;;;;;22.55;2.72;;;;;;;29.61;27.25;97233.84;4857379;29;20444;-89
2021/05/06 13:45:31;;;;;;;6.88;2.30;;;;;;;29.36;27.73;97239.28;4875871;29;20040;-89
2021/05/06 13:47:56;;;;;;;12.18;3.83;;;;;;;29.03;29.88;97260.63;4865716;29;20028;-89
2021/05/06 13:50:22;;;;;;;4.25;1.88;;;;;;;28.56;28.97;97233.41;4871746;29;20044;-89
2021/05/06 13:52:47;;;;;;;4.55;2.10;;;;;;;27.71;30.66;97237.03;4857555;29;20024;-87
2021/05/06 13:55:13;;;;;;;5.57;2.95;;;;;;;27.63;30.24;97240.81;4879383;29;20040;-86
2021/05/06 13:57:54;;;;;;;15.25;3.92;;;;;;;27.09;33.18;97235.38;4849413;29;20418;-89
2021/05/06 14:00:20;;;;;;;3.85;2.40;;;;;;;26.89;32.15;97226.22;4877966;29;20044;-88
2021/05/06 14:02:45;;;;;;;3.78;2.15;;;;;;;26.90;32.15;97228.78;4853834;29;20037;-88
2021/05/06 14:05:12;;;;;;;5.80;4.10;;;;;;;26.90;31.99;97225.16;4877434;29;20041;-87
2021/05/06 14:07:39;;;;;;;4.88;2.15;;;;;;;26.09;34.36;97207.56;4851874;29;20389;-91
2021/05/06 14:10:05;;;;;;;7.63;4.05;;;;;;;26.18;33.98;97211.03;4857211;29;20047;-87
2021/05/06 14:12:31;;;;;;;12.20;2.00;;;;;;;26.04;33.97;97207.31;4854040;29;20540;-77
2021/05/06 14:14:56;;;;;;;6.00;2.13;;;;;;;26.14;32.51;97215.19;4883430;29;20056;-78
2021/05/06 14:17:22;;;;;;;4.45;2.30;;;;;;;26.04;33.26;97221.03;4842389;29;20045;-80
2021/05/06 14:19:48;;;;;;;8.95;2.35;;;;;;;26.00;33.84;97221.63;4833586;29;20125;-83
2021/05/06 14:22:13;;;;;;;5.78;2.10;;;;;;;26.02;33.32;97219.53;4852930;29;20061;-83
2021/05/06 14:24:39;;;;;;;5.03;3.03;;;;;;;25.96;33.53;97218.44;4839517;29;20032;-76
2021/05/06 14:27:05;;;;;;;6.05;2.78;;;;;;;25.86;34.08;97212.47;4854172;29;20037;-76
2021/05/06 14:29:30;;;;;;;7.45;2.50;;;;;;;25.88;34.31;97213.94;4816395;29;20039;-79
2021/05/06 14:31:56;;;;;;;5.38;2.10;;;;;;;25.70;34.00;97218.22;4872249;29;20068;-77
2021/05/06 14:34:21;;;;;;;2.65;2.00;;;;;;;25.51;35.01;97224.34;4853305;29;20044;-76
2021/05/06 14:36:47;;;;;;;10.82;3.53;;;;;;;25.48;35.45;97220.09;4854381;29;20037;-82
2021/05/06 14:39:14;;;;;;;6.40;2.28;;;;;;;25.27;35.58;97223.69;4846872;29;20416;-81
2021/05/06 14:41:42;;;;;;;3.80;2.00;;;;;;;25.27;35.87;97220.94;4836690;29;20117;-78
2021/05/06 14:44:08;;;;;;;5.07;2.80;;;;;;;25.28;35.27;97222.66;4828649;29;20041;-75
2021/05/06 14:46:34;;;;;;;15.10;3.70;;;;;;;25.21;34.86;97215.41;4828423;29;20061;-78
2021/05/06 14:48:59;;;;;;;12.45;2.40;;;;;;;25.09;35.55;97215.06;4843804;29;20481;-77